< < Back
Terminal Aerodrome Forecast


Current Version              Previous Versions:   1  2  3  4  5  6  7  8  9  

Terminal Aerodrome Forecast

532
FTUS42 KCAE 012000 AAA
TAFAGS
TAF AMD
KAGS 012048Z 0121/0218 03006KT P6SM VCSH SCT025 OVC050
      TEMPO 0121/0124 BKN015
     FM020000 VRB03KT P6SM VCSH BKN015
     FM020900 VRB03KT 4SM BR OVC007
     FM021500 06005KT P6SM VCSH BKN015 BKN040=

Latest METAR

920
SAUS70 KWBC 012200 RRM
MTRAGS
METAR KAGS 012153Z 36011KT 10SM SCT050 26/21 A3001 RMK AO2 SLP161
T02610206


USA.gov is the U.S. government's official web portal to all federal, state and local government web resources and services.